sensor_id;sensor_type;location;lat;lon;timestamp;P1;durP1;ratioP1;P2;durP2;ratioP2
11076;SDS011;5591;42.626;23.380;2022-08-02T00:02:03;1.77;;;1.60;;
11076;SDS011;5591;42.626;23.380;2022-08-02T00:04:30;1.73;;;1.63;;
11076;SDS011;5591;42.626;23.380;2022-08-02T00:06:57;1.80;;;1.70;;
11076;SDS011;5591;42.626;23.380;2022-08-02T00:09:24;2.53;;;1.70;;
11076;SDS011;5591;42.626;23.380;2022-08-02T00:11:52;1.80;;;1.70;;
11076;SDS011;5591;42.626;23.380;2022-08-02T00:14:19;4.03;;;1.70;;
11076;SDS011;5591;42.626;23.380;2022-08-02T00:16:45;3.33;;;2.00;;
11076;SDS011;5591;42.626;23.380;2022-08-02T00:19:12;1.90;;;1.70;;
11076;SDS011;5591;42.626;23.380;2022-08-02T00:21:39;2.33;;;1.80;;
11076;SDS011;5591;42.626;23.380;2022-08-02T00:24:06;2.33;;;1.90;;
11076;SDS011;5591;42.626;23.380;2022-08-02T00:26:33;2.50;;;1.97;;
11076;SDS011;5591;42.626;23.380;2022-08-02T00:29:01;1.70;;;1.60;;
11076;SDS011;5591;42.626;23.380;2022-08-02T00:31:29;1.90;;;1.80;;
11076;SDS011;5591;42.626;23.380;2022-08-02T00:33:55;2.30;;;1.80;;
11076;SDS011;5591;42.626;23.380;2022-08-02T00:36:22;2.27;;;1.67;;
11076;SDS011;5591;42.626;23.380;2022-08-02T00:38:49;2.97;;;1.90;;
11076;SDS011;5591;42.626;23.380;2022-08-02T00:41:16;3.40;;;1.80;;
11076;SDS011;5591;42.626;23.380;2022-08-02T00:43:45;1.93;;;1.73;;
11076;SDS011;5591;42.626;23.380;2022-08-02T00:46:15;2.10;;;1.80;;
11076;SDS011;5591;42.626;23.380;2022-08-02T00:48:42;1.90;;;1.70;;
11076;SDS011;5591;42.626;23.380;2022-08-02T00:51:10;2.63;;;1.80;;
11076;SDS011;5591;42.626;23.380;2022-08-02T00:53:37;2.03;;;1.87;;
11076;SDS011;5591;42.626;23.380;2022-08-02T00:56:04;1.97;;;1.80;;
11076;SDS011;5591;42.626;23.380;2022-08-02T00:58:31;1.90;;;1.80;;
11076;SDS011;5591;42.626;23.380;2022-08-02T01:00:58;1.90;;;1.80;;
11076;SDS011;5591;42.626;23.380;2022-08-02T01:03:27;2.40;;;1.80;;
11076;SDS011;5591;42.626;23.380;2022-08-02T01:05:54;1.90;;;1.80;;
11076;SDS011;5591;42.626;23.380;2022-08-02T01:08:20;2.97;;;2.00;;
11076;SDS011;5591;42.626;23.380;2022-08-02T01:10:47;2.20;;;2.00;;
11076;SDS011;5591;42.626;23.380;2022-08-02T01:13:14;2.97;;;1.90;;
11076;SDS011;5591;42.626;23.380;2022-08-02T01:15:42;3.60;;;2.10;;
11076;SDS011;5591;42.626;23.380;2022-08-02T01:18:15;2.13;;;2.00;;
11076;SDS011;5591;42.626;23.380;2022-08-02T01:20:53;3.20;;;1.87;;
11076;SDS011;5591;42.626;23.380;2022-08-02T01:23:34;2.20;;;2.00;;
11076;SDS011;5591;42.626;23.380;2022-08-02T01:26:20;2.57;;;2.10;;
11076;SDS011;5591;42.626;23.380;2022-08-02T01:29:05;2.93;;;2.13;;
11076;SDS011;5591;42.626;23.380;2022-08-02T01:31:37;2.50;;;2.30;;
11076;SDS011;5591;42.626;23.380;2022-08-02T01:34:10;2.10;;;1.90;;
11076;SDS011;5591;42.626;23.380;2022-08-02T01:36:43;3.73;;;2.00;;
11076;SDS011;5591;42.626;23.380;2022-08-02T01:39:14;2.50;;;2.30;;
11076;SDS011;5591;42.626;23.380;2022-08-02T01:41:44;2.60;;;2.40;;
11076;SDS011;5591;42.626;23.380;2022-08-02T01:44:14;3.90;;;2.40;;
11076;SDS011;5591;42.626;23.380;2022-08-02T01:46:44;2.73;;;2.53;;
11076;SDS011;5591;42.626;23.380;2022-08-02T01:49:13;4.03;;;2.60;;
11076;SDS011;5591;42.626;23.380;2022-08-02T01:51:42;3.97;;;2.83;;
11076;SDS011;5591;42.626;23.380;2022-08-02T01:54:29;2.80;;;2.60;;
11076;SDS011;5591;42.626;23.380;2022-08-02T01:56:58;2.60;;;2.40;;
11076;SDS011;5591;42.626;23.380;2022-08-02T01:59:28;2.30;;;2.20;;
11076;SDS011;5591;42.626;23.380;2022-08-02T02:01:57;2.70;;;2.50;;
11076;SDS011;5591;42.626;23.380;2022-08-02T02:04:27;4.37;;;2.50;;
11076;SDS011;5591;42.626;23.380;2022-08-02T02:06:56;2.73;;;2.30;;
11076;SDS011;5591;42.626;23.380;2022-08-02T02:09:24;3.03;;;1.97;;
11076;SDS011;5591;42.626;23.380;2022-08-02T02:11:52;2.30;;;2.10;;
11076;SDS011;5591;42.626;23.380;2022-08-02T02:14:21;2.93;;;2.10;;
11076;SDS011;5591;42.626;23.380;2022-08-02T02:16:51;2.73;;;2.40;;
11076;SDS011;5591;42.626;23.380;2022-08-02T02:19:19;2.40;;;2.20;;
11076;SDS011;5591;42.626;23.380;2022-08-02T02:21:48;2.47;;;2.27;;
11076;SDS011;5591;42.626;23.380;2022-08-02T02:24:15;2.80;;;2.17;;
11076;SDS011;5591;42.626;23.380;2022-08-02T02:26:42;2.73;;;2.17;;
11076;SDS011;5591;42.626;23.380;2022-08-02T02:29:12;2.73;;;2.30;;
11076;SDS011;5591;42.626;23.380;2022-08-02T02:31:41;2.57;;;2.30;;
11076;SDS011;5591;42.626;23.380;2022-08-02T02:34:13;2.83;;;2.13;;
11076;SDS011;5591;42.626;23.380;2022-08-02T02:36:45;2.50;;;2.30;;
11076;SDS011;5591;42.626;23.380;2022-08-02T02:39:14;2.20;;;2.10;;
11076;SDS011;5591;42.626;23.380;2022-08-02T02:41:44;3.10;;;2.50;;
11076;SDS011;5591;42.626;23.380;2022-08-02T02:44:13;2.53;;;2.30;;
11076;SDS011;5591;42.626;23.380;2022-08-02T02:46:43;2.97;;;2.30;;
11076;SDS011;5591;42.626;23.380;2022-08-02T02:49:13;5.43;;;2.50;;
11076;SDS011;5591;42.626;23.380;2022-08-02T02:51:41;5.30;;;2.40;;
11076;SDS011;5591;42.626;23.380;2022-08-02T02:54:09;2.80;;;2.33;;
11076;SDS011;5591;42.626;23.380;2022-08-02T02:56:38;2.50;;;2.30;;
11076;SDS011;5591;42.626;23.380;2022-08-02T02:59:06;4.53;;;2.50;;
11076;SDS011;5591;42.626;23.380;2022-08-02T03:01:34;2.70;;;2.50;;
11076;SDS011;5591;42.626;23.380;2022-08-02T04:48:52;4.00;;;3.30;;
11076;SDS011;5591;42.626;23.380;2022-08-02T04:51:19;5.60;;;4.37;;
11076;SDS011;5591;42.626;23.380;2022-08-02T04:53:45;7.00;;;4.80;;
11076;SDS011;5591;42.626;23.380;2022-08-02T04:56:12;6.30;;;5.03;;
11076;SDS011;5591;42.626;23.380;2022-08-02T05:08:53;5.47;;;3.37;;
11076;SDS011;5591;42.626;23.380;2022-08-02T05:11:20;5.27;;;4.17;;
11076;SDS011;5591;42.626;23.380;2022-08-02T05:13:47;6.90;;;4.70;;
11076;SDS011;5591;42.626;23.380;2022-08-02T05:16:14;8.07;;;6.30;;
11076;SDS011;5591;42.626;23.380;2022-08-02T05:18:41;8.40;;;4.27;;
11076;SDS011;5591;42.626;23.380;2022-08-02T06:59:16;2.87;;;2.03;;
11076;SDS011;5591;42.626;23.380;2022-08-02T07:01:43;3.20;;;2.50;;
11076;SDS011;5591;42.626;23.380;2022-08-02T07:04:10;3.13;;;2.40;;
11076;SDS011;5591;42.626;23.380;2022-08-02T07:06:36;2.53;;;2.10;;
11076;SDS011;5591;42.626;23.380;2022-08-02T07:09:03;2.10;;;1.90;;
11076;SDS011;5591;42.626;23.380;2022-08-02T07:11:30;3.70;;;2.23;;
11076;SDS011;5591;42.626;23.380;2022-08-02T07:13:57;5.33;;;2.33;;
11076;SDS011;5591;42.626;23.380;2022-08-02T07:16:25;3.93;;;2.40;;
11076;SDS011;5591;42.626;23.380;2022-08-02T07:18:52;2.60;;;2.10;;
11076;SDS011;5591;42.626;23.380;2022-08-02T08:29:49;5.83;;;2.30;;
11076;SDS011;5591;42.626;23.380;2022-08-02T08:32:16;3.53;;;1.93;;
11076;SDS011;5591;42.626;23.380;2022-08-02T08:34:43;2.10;;;1.90;;
11076;SDS011;5591;42.626;23.380;2022-08-02T08:37:10;1.90;;;1.70;;
11076;SDS011;5591;42.626;23.380;2022-08-02T08:39:37;4.23;;;2.00;;
11076;SDS011;5591;42.626;23.380;2022-08-02T08:42:04;6.57;;;1.83;;
11076;SDS011;5591;42.626;23.380;2022-08-02T08:44:33;3.03;;;1.93;;
11076;SDS011;5591;42.626;23.380;2022-08-02T08:47:01;3.47;;;1.70;;
11076;SDS011;5591;42.626;23.380;2022-08-02T08:49:30;1.70;;;1.60;;
11076;SDS011;5591;42.626;23.380;2022-08-02T08:52:00;3.73;;;1.60;;
11076;SDS011;5591;42.626;23.380;2022-08-02T08:54:30;1.90;;;1.53;;
11076;SDS011;5591;42.626;23.380;2022-08-02T08:59:35;1.63;;;1.50;;
11076;SDS011;5591;42.626;23.380;2022-08-02T09:04:37;5.13;;;1.20;;
11076;SDS011;5591;42.626;23.380;2022-08-02T09:09:40;3.70;;;1.80;;
11076;SDS011;5591;42.626;23.380;2022-08-02T09:14:43;2.37;;;1.90;;
11076;SDS011;5591;42.626;23.380;2022-08-02T09:19:47;2.13;;;1.23;;
11076;SDS011;5591;42.626;23.380;2022-08-02T09:22:30;2.03;;;1.40;;
11076;SDS011;5591;42.626;23.380;2022-08-02T10:06:22;1.80;;;1.60;;
11076;SDS011;5591;42.626;23.380;2022-08-02T10:08:49;1.53;;;1.43;;
11076;SDS011;5591;42.626;23.380;2022-08-02T10:11:17;2.83;;;1.93;;
11076;SDS011;5591;42.626;23.380;2022-08-02T10:13:45;2.73;;;1.40;;
11076;SDS011;5591;42.626;23.380;2022-08-02T10:31:46;3.63;;;2.00;;
11076;SDS011;5591;42.626;23.380;2022-08-02T10:34:17;2.67;;;1.40;;
11076;SDS011;5591;42.626;23.380;2022-08-02T10:36:47;2.40;;;1.37;;
11076;SDS011;5591;42.626;23.380;2022-08-02T10:39:16;1.30;;;1.20;;
11076;SDS011;5591;42.626;23.380;2022-08-02T10:41:43;1.67;;;1.50;;
11076;SDS011;5591;42.626;23.380;2022-08-02T10:44:19;1.40;;;1.30;;
11076;SDS011;5591;42.626;23.380;2022-08-02T10:46:48;1.60;;;1.50;;
11076;SDS011;5591;42.626;23.380;2022-08-02T10:49:16;2.10;;;1.90;;
11076;SDS011;5591;42.626;23.380;2022-08-02T10:52:05;2.57;;;1.17;;
11076;SDS011;5591;42.626;23.380;2022-08-02T10:54:34;1.60;;;1.50;;
11076;SDS011;5591;42.626;23.380;2022-08-02T10:57:03;1.73;;;1.63;;
11076;SDS011;5591;42.626;23.380;2022-08-02T10:59:41;1.60;;;1.50;;
11076;SDS011;5591;42.626;23.380;2022-08-02T11:02:09;5.47;;;1.43;;
11076;SDS011;5591;42.626;23.380;2022-08-02T11:07:40;1.70;;;1.53;;
11076;SDS011;5591;42.626;23.380;2022-08-02T11:12:57;2.50;;;2.13;;
11076;SDS011;5591;42.626;23.380;2022-08-02T13:36:52;3.08;;;1.30;;
11076;SDS011;5591;42.626;23.380;2022-08-02T13:39:19;1.77;;;1.42;;
11076;SDS011;5591;42.626;23.380;2022-08-02T13:41:46;1.88;;;1.42;;
11076;SDS011;5591;42.626;23.380;2022-08-02T13:44:13;1.20;;;1.10;;
11076;SDS011;5591;42.626;23.380;2022-08-02T13:46:39;4.25;;;2.03;;
11076;SDS011;5591;42.626;23.380;2022-08-02T13:49:06;1.13;;;1.10;;
11076;SDS011;5591;42.626;23.380;2022-08-02T13:51:33;1.60;;;1.35;;
11076;SDS011;5591;42.626;23.380;2022-08-02T13:54:01;1.85;;;1.10;;
11076;SDS011;5591;42.626;23.380;2022-08-02T13:56:28;4.97;;;1.70;;
11076;SDS011;5591;42.626;23.380;2022-08-02T13:58:55;1.70;;;1.60;;
11076;SDS011;5591;42.626;23.380;2022-08-02T14:01:23;2.05;;;1.33;;
11076;SDS011;5591;42.626;23.380;2022-08-02T14:03:50;2.45;;;2.25;;
11076;SDS011;5591;42.626;23.380;2022-08-02T14:06:18;4.18;;;2.10;;
11076;SDS011;5591;42.626;23.380;2022-08-02T14:08:45;1.27;;;1.23;;
11076;SDS011;5591;42.626;23.380;2022-08-02T14:11:13;2.90;;;2.70;;
11076;SDS011;5591;42.626;23.380;2022-08-02T14:13:40;1.35;;;1.20;;
11076;SDS011;5591;42.626;23.380;2022-08-02T14:16:07;2.35;;;2.15;;
11076;SDS011;5591;42.626;23.380;2022-08-02T14:18:34;1.38;;;1.20;;
11076;SDS011;5591;42.626;23.380;2022-08-02T14:21:01;3.42;;;3.22;;
11076;SDS011;5591;42.626;23.380;2022-08-02T14:23:28;1.35;;;1.25;;
11076;SDS011;5591;42.626;23.380;2022-08-02T14:25:56;2.55;;;2.35;;
11076;SDS011;5591;42.626;23.380;2022-08-02T14:28:25;1.42;;;1.30;;
11076;SDS011;5591;42.626;23.380;2022-08-02T14:30:52;2.45;;;2.25;;
11076;SDS011;5591;42.626;23.380;2022-08-02T14:33:19;1.60;;;1.50;;
11076;SDS011;5591;42.626;23.380;2022-08-02T14:35:45;3.33;;;2.38;;
11076;SDS011;5591;42.626;23.380;2022-08-02T14:38:12;1.25;;;1.15;;
11076;SDS011;5591;42.626;23.380;2022-08-02T14:40:39;3.47;;;3.17;;
11076;SDS011;5591;42.626;23.380;2022-08-02T14:43:05;2.00;;;1.20;;
11076;SDS011;5591;42.626;23.380;2022-08-02T14:45:34;1.20;;;1.20;;
11076;SDS011;5591;42.626;23.380;2022-08-02T14:48:00;2.90;;;2.70;;
11076;SDS011;5591;42.626;23.380;2022-08-02T14:50:27;1.58;;;1.48;;
11076;SDS011;5591;42.626;23.380;2022-08-02T16:11:51;3.13;;;2.80;;
11076;SDS011;5591;42.626;23.380;2022-08-02T18:04:00;7.53;;;3.13;;
11076;SDS011;5591;42.626;23.380;2022-08-02T18:06:27;3.87;;;2.70;;
11076;SDS011;5591;42.626;23.380;2022-08-02T18:08:54;7.93;;;3.93;;
11076;SDS011;5591;42.626;23.380;2022-08-02T18:11:21;2.70;;;2.23;;
11076;SDS011;5591;42.626;23.380;2022-08-02T18:13:48;7.00;;;4.33;;
11076;SDS011;5591;42.626;23.380;2022-08-02T18:16:15;2.23;;;2.03;;
11076;SDS011;5591;42.626;23.380;2022-08-02T18:18:42;4.40;;;4.00;;
11076;SDS011;5591;42.626;23.380;2022-08-02T18:21:10;2.90;;;2.30;;
11076;SDS011;5591;42.626;23.380;2022-08-02T18:23:37;4.03;;;2.80;;
11076;SDS011;5591;42.626;23.380;2022-08-02T18:26:04;6.17;;;3.07;;
11076;SDS011;5591;42.626;23.380;2022-08-02T18:28:30;4.10;;;2.50;;
11076;SDS011;5591;42.626;23.380;2022-08-02T18:30:57;5.03;;;3.40;;
11076;SDS011;5591;42.626;23.380;2022-08-02T18:33:24;4.50;;;2.17;;
11076;SDS011;5591;42.626;23.380;2022-08-02T18:35:51;4.70;;;2.00;;
11076;SDS011;5591;42.626;23.380;2022-08-02T18:38:19;4.27;;;2.30;;
11076;SDS011;5591;42.626;23.380;2022-08-02T18:40:46;2.77;;;2.37;;
11076;SDS011;5591;42.626;23.380;2022-08-02T18:43:13;10.77;;;9.07;;
11076;SDS011;5591;42.626;23.380;2022-08-02T18:45:39;15.77;;;12.83;;
11076;SDS011;5591;42.626;23.380;2022-08-02T18:48:06;15.67;;;14.20;;
11076;SDS011;5591;42.626;23.380;2022-08-02T18:50:33;9.27;;;8.47;;
11076;SDS011;5591;42.626;23.380;2022-08-02T18:52:59;5.13;;;3.03;;
11076;SDS011;5591;42.626;23.380;2022-08-02T18:55:28;3.37;;;3.07;;
11076;SDS011;5591;42.626;23.380;2022-08-02T18:57:54;6.10;;;4.53;;
11076;SDS011;5591;42.626;23.380;2022-08-02T19:00:21;5.93;;;3.57;;
11076;SDS011;5591;42.626;23.380;2022-08-02T19:02:48;4.57;;;2.30;;
11076;SDS011;5591;42.626;23.380;2022-08-02T19:05:15;4.70;;;3.20;;
11076;SDS011;5591;42.626;23.380;2022-08-02T19:07:42;3.30;;;2.43;;
11076;SDS011;5591;42.626;23.380;2022-08-02T19:10:09;2.93;;;2.30;;
11076;SDS011;5591;42.626;23.380;2022-08-02T20:37:44;2.77;;;1.80;;
11076;SDS011;5591;42.626;23.380;2022-08-02T20:42:46;1.60;;;1.47;;
11076;SDS011;5591;42.626;23.380;2022-08-02T21:21:20;2.90;;;1.20;;
11076;SDS011;5591;42.626;23.380;2022-08-02T21:23:47;2.33;;;1.10;;
11076;SDS011;5591;42.626;23.380;2022-08-02T21:26:14;2.47;;;1.20;;
11076;SDS011;5591;42.626;23.380;2022-08-02T21:28:42;2.17;;;1.30;;
11076;SDS011;5591;42.626;23.380;2022-08-02T21:31:09;1.40;;;1.30;;
11076;SDS011;5591;42.626;23.380;2022-08-02T21:33:36;1.10;;;1.10;;
11076;SDS011;5591;42.626;23.380;2022-08-02T21:36:03;1.30;;;1.20;;
11076;SDS011;5591;42.626;23.380;2022-08-02T21:38:31;2.07;;;1.33;;
11076;SDS011;5591;42.626;23.380;2022-08-02T21:40:58;1.30;;;1.20;;
11076;SDS011;5591;42.626;23.380;2022-08-02T21:43:25;2.23;;;1.30;;
11076;SDS011;5591;42.626;23.380;2022-08-02T21:45:52;2.10;;;1.27;;
11076;SDS011;5591;42.626;23.380;2022-08-02T21:48:18;1.37;;;1.20;;
11076;SDS011;5591;42.626;23.380;2022-08-02T21:50:45;1.80;;;1.30;;
11076;SDS011;5591;42.626;23.380;2022-08-02T21:53:12;1.57;;;1.20;;
11076;SDS011;5591;42.626;23.380;2022-08-02T21:55:40;1.10;;;1.10;;
11076;SDS011;5591;42.626;23.380;2022-08-02T21:58:07;0.90;;;0.90;;
11076;SDS011;5591;42.626;23.380;2022-08-02T22:00:33;1.43;;;1.33;;
11076;SDS011;5591;42.626;23.380;2022-08-02T22:03:00;1.67;;;1.20;;
11076;SDS011;5591;42.626;23.380;2022-08-02T22:05:27;1.77;;;1.27;;
11076;SDS011;5591;42.626;23.380;2022-08-02T22:07:54;2.40;;;1.33;;
11076;SDS011;5591;42.626;23.380;2022-08-02T22:10:20;1.50;;;1.40;;
11076;SDS011;5591;42.626;23.380;2022-08-02T22:12:49;1.37;;;1.10;;
11076;SDS011;5591;42.626;23.380;2022-08-02T22:15:15;1.10;;;1.10;;
11076;SDS011;5591;42.626;23.380;2022-08-02T22:17:42;1.40;;;1.30;;
11076;SDS011;5591;42.626;23.380;2022-08-02T22:20:09;1.27;;;1.20;;
11076;SDS011;5591;42.626;23.380;2022-08-02T22:22:38;1.47;;;1.30;;
11076;SDS011;5591;42.626;23.380;2022-08-02T22:25:05;1.87;;;1.30;;
11076;SDS011;5591;42.626;23.380;2022-08-02T22:27:32;1.40;;;1.30;;
11076;SDS011;5591;42.626;23.380;2022-08-02T22:30:00;1.87;;;1.60;;
11076;SDS011;5591;42.626;23.380;2022-08-02T22:32:27;1.60;;;1.50;;
11076;SDS011;5591;42.626;23.380;2022-08-02T22:35:11;1.40;;;1.30;;
11076;SDS011;5591;42.626;23.380;2022-08-02T22:37:38;3.83;;;1.30;;
11076;SDS011;5591;42.626;23.380;2022-08-02T22:40:05;2.80;;;1.40;;
11076;SDS011;5591;42.626;23.380;2022-08-02T22:42:33;1.43;;;1.13;;
11076;SDS011;5591;42.626;23.380;2022-08-02T22:45:01;1.40;;;1.30;;
11076;SDS011;5591;42.626;23.380;2022-08-02T22:47:28;1.40;;;1.30;;
11076;SDS011;5591;42.626;23.380;2022-08-02T22:49:55;1.70;;;1.43;;
11076;SDS011;5591;42.626;23.380;2022-08-02T22:52:22;1.43;;;1.33;;
11076;SDS011;5591;42.626;23.380;2022-08-02T22:54:49;1.30;;;1.20;;
11076;SDS011;5591;42.626;23.380;2022-08-02T22:57:16;2.50;;;1.30;;
11076;SDS011;5591;42.626;23.380;2022-08-02T22:59:42;1.40;;;1.30;;
11076;SDS011;5591;42.626;23.380;2022-08-02T23:02:10;1.47;;;1.27;;
11076;SDS011;5591;42.626;23.380;2022-08-02T23:04:37;1.60;;;1.50;;
11076;SDS011;5591;42.626;23.380;2022-08-02T23:07:04;1.40;;;1.30;;
11076;SDS011;5591;42.626;23.380;2022-08-02T23:09:31;1.50;;;1.40;;
11076;SDS011;5591;42.626;23.380;2022-08-02T23:11:57;2.70;;;1.70;;
11076;SDS011;5591;42.626;23.380;2022-08-02T23:14:24;2.00;;;1.80;;
11076;SDS011;5591;42.626;23.380;2022-08-02T23:16:51;1.50;;;1.40;;
11076;SDS011;5591;42.626;23.380;2022-08-02T23:19:37;1.20;;;1.20;;
11076;SDS011;5591;42.626;23.380;2022-08-02T23:22:16;2.50;;;1.60;;
11076;SDS011;5591;42.626;23.380;2022-08-02T23:24:43;2.50;;;1.47;;
11076;SDS011;5591;42.626;23.380;2022-08-02T23:27:10;1.80;;;1.30;;
11076;SDS011;5591;42.626;23.380;2022-08-02T23:29:37;1.20;;;1.20;;
11076;SDS011;5591;42.626;23.380;2022-08-02T23:32:04;1.47;;;1.20;;
11076;SDS011;5591;42.626;23.380;2022-08-02T23:34:31;1.73;;;1.20;;
11076;SDS011;5591;42.626;23.380;2022-08-02T23:36:59;1.73;;;1.43;;
11076;SDS011;5591;42.626;23.380;2022-08-02T23:39:28;1.40;;;1.30;;
11076;SDS011;5591;42.626;23.380;2022-08-02T23:41:54;1.47;;;1.37;;
11076;SDS011;5591;42.626;23.380;2022-08-02T23:44:22;1.40;;;1.27;;
11076;SDS011;5591;42.626;23.380;2022-08-02T23:46:49;1.40;;;1.30;;
11076;SDS011;5591;42.626;23.380;2022-08-02T23:49:16;1.67;;;1.47;;
11076;SDS011;5591;42.626;23.380;2022-08-02T23:51:42;1.20;;;1.13;;
11076;SDS011;5591;42.626;23.380;2022-08-02T23:54:11;1.47;;;1.37;;
11076;SDS011;5591;42.626;23.380;2022-08-02T23:56:38;1.70;;;1.40;;
11076;SDS011;5591;42.626;23.380;2022-08-02T23:59:05;2.33;;;1.40;;
